Time;durP1;ratioP1;P1;durP2;ratioP2;P2;SDS_P1;SDS_P2;PMS_P1;PMS_P2;Temp;Humidity;BMP_temperature;BMP_pressure;BME280_temperature;BME280_humidity;BME280_pressure;Samples;Min_cycle;Max_cycle;Signal;HPM_P1;HPM_P2
2022/06/04 00:00:37;;;;;;;21.65;8.60;;;;;;;18.74;100.00;97983.56;5047883;28;20044;-58
2022/06/04 00:03:03;;;;;;;24.70;11.90;;;;;;;18.54;100.00;97993.78;5048956;28;20033;-57
2022/06/04 00:05:33;;;;;;;16.77;7.95;;;;;;;18.91;100.00;97999.00;5054607;28;20040;-58
2022/06/04 00:08:00;;;;;;;24.13;12.60;;;;;;;18.80;100.00;97983.09;5046671;28;20423;-57
2022/06/04 00:16:00;;;;;;;19.42;11.10;;;;;;;18.49;100.00;98009.16;5049238;28;20089;-58
2022/06/04 00:18:26;;;;;;;18.70;7.65;;;;;;;18.65;100.00;98008.84;5050006;28;20021;-57
2022/06/04 00:20:54;;;;;;;31.25;15.13;;;;;;;18.13;100.00;98016.13;5047124;28;20036;-58
2022/06/04 00:23:20;;;;;;;24.38;12.10;;;;;;;17.94;100.00;98029.81;5049600;28;20029;-57
2022/06/04 00:25:49;;;;;;;24.27;12.05;;;;;;;18.12;100.00;98027.63;5045882;28;20043;-57
2022/06/04 00:28:17;;;;;;;23.63;13.57;;;;;;;17.66;100.00;98020.28;5049144;28;20492;-58
2022/06/04 00:30:43;;;;;;;22.63;11.00;;;;;;;18.03;100.00;98033.56;5046209;28;20033;-57
2022/06/04 00:33:08;;;;;;;26.55;13.15;;;;;;;17.87;100.00;98018.84;5048978;28;20032;-58
2022/06/04 00:35:35;;;;;;;30.23;15.02;;;;;;;17.73;100.00;98027.66;5048282;28;20037;-58
2022/06/04 00:38:01;;;;;;;24.10;12.43;;;;;;;17.75;100.00;98024.94;5046872;28;20025;-58
2022/06/04 00:40:40;;;;;;;25.35;14.23;;;;;;;17.50;100.00;98036.34;5044841;28;20094;-58
2022/06/04 00:43:05;;;;;;;36.30;15.25;;;;;;;17.44;100.00;98032.34;5048901;28;20525;-58
2022/06/04 00:45:34;;;;;;;26.55;10.85;;;;;;;17.54;100.00;98032.56;5049328;28;20716;-58
2022/06/04 00:48:01;;;;;;;25.25;13.27;;;;;;;17.80;100.00;98032.53;5048191;28;20095;-58
2022/06/04 00:50:29;;;;;;;24.48;13.35;;;;;;;17.98;100.00;98025.16;5045785;28;20051;-58
2022/06/04 00:52:57;;;;;;;30.50;14.40;;;;;;;17.83;100.00;98027.03;5048353;28;20890;-57
2022/06/04 00:55:24;;;;;;;25.98;13.98;;;;;;;17.66;100.00;98020.28;5050385;28;20047;-56
2022/06/04 00:57:58;;;;;;;25.00;12.77;;;;;;;17.60;100.00;98028.66;5054231;28;20051;-57
2022/06/04 01:00:51;;;;;;;21.63;10.45;;;;;;;18.01;100.00;98032.84;5049648;28;20120;-57
2022/06/04 01:03:31;;;;;;;24.92;12.35;;;;;;;17.75;100.00;98014.38;5050314;28;20027;-59
2022/06/04 01:06:05;;;;;;;19.48;12.23;;;;;;;17.83;100.00;98022.63;5049179;28;20045;-58
2022/06/04 01:08:52;;;;;;;33.90;13.65;;;;;;;17.75;100.00;98027.56;5049514;28;20071;-58
2022/06/04 01:14:42;;;;;;;25.55;12.60;;;;;;;17.76;100.00;98029.28;5051625;28;20070;-58
2022/06/04 01:17:30;;;;;;;20.95;10.60;;;;;;;17.56;100.00;98032.44;5052220;28;20036;-60
2022/06/04 01:20:02;;;;;;;29.77;13.65;;;;;;;17.42;100.00;98033.38;5049985;28;20116;-59
2022/06/04 01:22:36;;;;;;;26.63;13.38;;;;;;;17.42;100.00;98042.13;5052034;28;20043;-58
2022/06/04 01:25:18;;;;;;;23.33;11.20;;;;;;;17.71;100.00;98028.75;5053192;28;20028;-59
2022/06/04 01:27:56;;;;;;;21.98;11.75;;;;;;;17.74;100.00;98033.81;5053576;28;20147;-58
2022/06/04 01:30:27;;;;;;;28.50;12.68;;;;;;;17.81;100.00;98029.78;5050632;28;20033;-58
2022/06/04 01:32:58;;;;;;;24.90;12.52;;;;;;;17.54;100.00;98038.66;5054238;28;20557;-58
2022/06/04 01:35:44;;;;;;;36.17;15.13;;;;;;;17.37;100.00;98046.91;5049406;28;20045;-59
2022/06/04 01:38:24;;;;;;;32.95;14.10;;;;;;;17.48;100.00;98041.72;5049885;28;20097;-58
2022/06/04 01:41:15;;;;;;;29.88;13.73;;;;;;;17.22;100.00;98043.50;5048672;28;20755;-58
2022/06/04 01:43:52;;;;;;;36.75;15.55;;;;;;;17.07;100.00;98044.53;5049526;28;20029;-58
2022/06/04 01:46:39;;;;;;;24.75;13.35;;;;;;;17.63;100.00;98041.63;5049940;28;20041;-58
2022/06/04 01:49:13;;;;;;;63.30;17.73;;;;;;;17.20;100.00;98039.28;5051644;28;20469;-59
2022/06/04 01:51:39;;;;;;;21.40;10.88;;;;;;;17.53;100.00;98047.53;5048073;28;20089;-59
2022/06/04 01:54:24;;;;;;;29.63;12.93;;;;;;;17.17;100.00;98050.00;5052270;28;20106;-58
2022/06/04 01:56:55;;;;;;;31.52;13.85;;;;;;;17.32;100.00;98043.72;5050370;28;20066;-60
2022/06/04 01:59:41;;;;;;;30.55;12.77;;;;;;;17.51;100.00;98033.59;5052150;28;20028;-59
2022/06/04 02:02:12;;;;;;;33.95;13.77;;;;;;;17.36;100.00;98050.47;5051113;28;20037;-59
2022/06/04 02:04:44;;;;;;;27.38;13.13;;;;;;;17.43;100.00;98041.19;5051403;28;20032;-58
2022/06/04 02:07:32;;;;;;;37.05;14.05;;;;;;;17.34;100.00;98036.56;5050486;28;20598;-57
2022/06/04 02:10:05;;;;;;;39.90;15.63;;;;;;;17.14;100.00;98041.38;5048717;28;20705;-56
2022/06/04 02:12:33;;;;;;;48.28;15.88;;;;;;;17.14;100.00;98033.47;5050211;28;20025;-57
2022/06/04 02:15:00;;;;;;;32.28;14.82;;;;;;;17.25;100.00;98029.28;5051045;28;20025;-56
2022/06/04 02:17:27;;;;;;;79.80;11.25;;;;;;;16.97;100.00;98023.22;5050972;28;20041;-56
2022/06/04 02:19:52;;;;;;;39.63;14.82;;;;;;;17.18;100.00;98022.72;5049437;28;20081;-56
2022/06/04 02:22:18;;;;;;;65.53;16.00;;;;;;;17.49;100.00;98019.66;5049545;28;20032;-56
2022/06/04 02:24:44;;;;;;;60.03;16.17;;;;;;;17.45;100.00;98007.66;5047753;28;20107;-55
2022/06/04 02:27:10;;;;;;;65.93;16.60;;;;;;;17.43;100.00;98008.72;5050379;28;20033;-57
2022/06/04 02:29:39;;;;;;;53.17;15.25;;;;;;;17.41;100.00;98000.06;5052146;28;20665;-56
2022/06/04 02:32:27;;;;;;;159.40;20.60;;;;;;;17.26;100.00;98001.94;5049340;28;20068;-56
2022/06/04 02:35:20;;;;;;;273.75;23.70;;;;;;;17.11;100.00;98007.34;5051271;28;20063;-56
2022/06/04 02:38:00;;;;;;;80.63;15.95;;;;;;;17.14;100.00;97999.19;5049748;28;20071;-57
2022/06/04 02:40:31;;;;;;;111.15;18.80;;;;;;;17.00;100.00;97991.41;5050125;28;20978;-56
2022/06/04 02:43:04;;;;;;;115.13;15.87;;;;;;;16.73;100.00;97994.88;5047706;28;20111;-56
2022/06/04 02:45:32;;;;;;;57.88;12.43;;;;;;;17.19;100.00;98001.53;5051141;28;20086;-56
2022/06/04 02:48:13;;;;;;;44.30;13.75;;;;;;;16.68;100.00;97985.63;5051003;28;20031;-57
2022/06/04 02:50:45;;;;;;;77.55;11.70;;;;;;;16.94;100.00;97991.81;5048036;28;20070;-56
2022/06/04 02:53:13;;;;;;;54.13;15.07;;;;;;;17.07;100.00;97994.44;5051080;28;20133;-57
2022/06/04 02:55:50;;;;;;;37.00;14.48;;;;;;;17.01;100.00;98008.88;5050466;28;20288;-57
2022/06/04 02:58:19;;;;;;;26.00;11.23;;;;;;;17.25;100.00;98005.53;5050740;28;20021;-55
2022/06/04 03:00:47;;;;;;;43.60;13.57;;;;;;;16.82;100.00;98006.63;5048191;28;20040;-57
2022/06/04 03:03:13;;;;;;;30.25;12.38;;;;;;;17.15;100.00;98011.44;5050470;28;20037;-58
2022/06/04 03:05:51;;;;;;;56.17;15.52;;;;;;;16.99;100.00;98015.22;5050308;28;20138;-58
2022/06/04 03:08:16;;;;;;;75.30;13.45;;;;;;;17.06;100.00;98016.50;5047925;28;20210;-58
2022/06/04 03:10:42;;;;;;;37.25;12.90;;;;;;;17.39;100.00;98018.63;5048371;28;20045;-57
2022/06/04 03:13:07;;;;;;;252.00;17.90;;;;;;;16.74;100.00;98012.41;5048112;28;20036;-57
2022/06/04 03:15:33;;;;;;;82.50;15.73;;;;;;;16.95;100.00;98025.13;5048626;28;20517;-57
2022/06/04 03:17:58;;;;;;;49.35;12.68;;;;;;;17.70;100.00;98013.88;5049187;28;20756;-57
2022/06/04 03:20:26;;;;;;;54.33;14.82;;;;;;;17.54;100.00;98016.72;5048512;28;20013;-57
2022/06/04 03:22:52;;;;;;;29.80;13.93;;;;;;;17.45;100.00;98026.13;5051903;28;20037;-57
2022/06/04 03:25:19;;;;;;;156.05;14.18;;;;;;;17.49;100.00;98024.94;5049139;28;20025;-57
2022/06/04 03:27:45;;;;;;;46.13;14.73;;;;;;;17.29;100.00;98028.09;5049436;28;20064;-57
2022/06/04 03:30:11;;;;;;;139.35;14.65;;;;;;;17.58;100.00;98030.56;5049070;28;20020;-58
2022/06/04 03:32:36;;;;;;;367.40;19.45;;;;;;;17.80;100.00;98033.38;5050703;28;20021;-57
2022/06/04 03:35:02;;;;;;;24.52;8.38;;;;;;;18.11;100.00;98029.44;5050418;28;20039;-56
2022/06/04 03:37:27;;;;;;;157.10;15.68;;;;;;;17.76;100.00;98020.53;5048269;28;20044;-57
2022/06/04 03:39:53;;;;;;;73.65;12.45;;;;;;;17.66;100.00;98026.44;5057267;28;20033;-58
2022/06/04 03:42:18;;;;;;;106.88;16.17;;;;;;;17.67;100.00;98012.28;5048809;28;20063;-57
2022/06/04 03:44:47;;;;;;;182.35;15.27;;;;;;;17.38;100.00;98016.94;5049499;28;20028;-56
2022/06/04 03:47:17;;;;;;;241.25;17.48;;;;;;;17.63;100.00;98015.25;5049900;28;20040;-57
2022/06/04 03:49:46;;;;;;;206.60;17.85;;;;;;;18.08;100.00;98018.25;5048030;28;20037;-58
2022/06/04 03:52:13;;;;;;;233.85;18.40;;;;;;;17.31;100.00;98027.06;5047572;28;20037;-57
2022/06/04 03:54:55;;;;;;;173.32;15.77;;;;;;;17.69;100.00;98030.66;5048616;28;20024;-57
2022/06/04 03:57:48;;;;;;;98.28;15.13;;;;;;;17.24;100.00;98035.47;5048216;28;20032;-56
2022/06/04 04:00:29;;;;;;;118.95;13.38;;;;;;;17.29;100.00;98039.47;5047291;28;20415;-57
2022/06/04 04:02:57;;;;;;;149.57;15.50;;;;;;;17.09;100.00;98037.34;5050194;28;20017;-59
2022/06/04 04:05:29;;;;;;;220.45;14.73;;;;;;;17.67;100.00;98032.56;5047251;28;20064;-56
2022/06/04 04:07:55;;;;;;;115.50;15.20;;;;;;;17.37;100.00;98024.94;5047734;28;20032;-56
2022/06/04 04:10:22;;;;;;;68.20;13.38;;;;;;;17.43;100.00;98030.66;5046382;28;20029;-56
2022/06/04 04:12:47;;;;;;;30.35;10.82;;;;;;;16.64;100.00;98032.38;5050170;28;20017;-57
2022/06/04 04:15:13;;;;;;;22.58;11.15;;;;;;;16.76;100.00;98049.16;5050560;28;20543;-57
2022/06/04 04:17:40;;;;;;;34.33;11.15;;;;;;;17.31;100.00;98028.84;5049635;28;20024;-57
2022/06/04 04:20:09;;;;;;;26.65;10.85;;;;;;;17.66;100.00;98023.81;5048690;28;20025;-56
2022/06/04 04:22:35;;;;;;;17.67;9.90;;;;;;;18.02;100.00;98000.22;5050154;28;20044;-59
2022/06/04 04:25:01;;;;;;;17.42;9.73;;;;;;;18.36;100.00;98005.69;5048928;28;20103;-57
2022/06/04 04:27:26;;;;;;;20.00;9.70;;;;;;;18.24;100.00;98000.38;5048697;28;20043;-56
2022/06/04 04:29:52;;;;;;;21.23;10.27;;;;;;;18.07;100.00;98001.59;5045930;28;20510;-56
2022/06/04 04:32:17;;;;;;;17.40;9.32;;;;;;;18.56;100.00;98012.19;5047606;28;20533;-56
2022/06/04 04:34:43;;;;;;;17.10;8.80;;;;;;;18.48;100.00;98008.28;5048553;28;20029;-58
2022/06/04 04:37:08;;;;;;;22.63;10.35;;;;;;;18.13;100.00;97997.66;5046834;28;20112;-57
2022/06/04 04:39:33;;;;;;;14.40;8.48;;;;;;;19.13;100.00;97986.81;5048499;28;20078;-56
2022/06/04 04:41:59;;;;;;;15.10;9.27;;;;;;;19.32;100.00;97978.31;5048429;28;20494;-56
2022/06/04 04:44:24;;;;;;;14.90;8.55;;;;;;;19.19;100.00;97999.59;5049657;28;20093;-57
2022/06/04 04:46:50;;;;;;;20.08;9.15;;;;;;;19.14;100.00;98009.66;5046552;28;20032;-56
2022/06/04 04:49:17;;;;;;;16.55;8.82;;;;;;;19.38;100.00;97996.38;5048267;28;20028;-58
2022/06/04 04:51:42;;;;;;;14.20;8.32;;;;;;;19.45;100.00;97997.59;5047196;28;20045;-57
2022/06/04 04:54:07;;;;;;;14.23;8.20;;;;;;;19.22;100.00;98007.28;5049977;28;20033;-57
2022/06/04 04:56:33;;;;;;;18.23;9.27;;;;;;;19.84;100.00;97998.94;5047965;28;20040;-56
2022/06/04 04:58:58;;;;;;;18.67;9.07;;;;;;;19.33;100.00;97999.34;5046686;28;20048;-58
2022/06/04 05:01:26;;;;;;;16.05;9.38;;;;;;;19.33;100.00;98012.56;5047980;28;20119;-56
2022/06/04 05:03:52;;;;;;;20.00;9.70;;;;;;;18.96;100.00;98015.38;5048313;28;20905;-57
2022/06/04 05:06:19;;;;;;;17.92;9.07;;;;;;;19.46;100.00;98025.69;5047343;28;20071;-57
2022/06/04 05:08:46;;;;;;;18.98;9.95;;;;;;;19.02;100.00;98022.84;5047519;28;20151;-56
2022/06/04 05:11:15;;;;;;;21.25;10.82;;;;;;;18.96;100.00;98010.09;5047657;28;20409;-56
2022/06/04 05:13:40;;;;;;;15.95;8.70;;;;;;;19.78;100.00;98017.94;5049363;28;20117;-58
2022/06/04 05:16:06;;;;;;;63.38;11.30;;;;;;;19.08;100.00;98026.84;5048757;28;20425;-57
2022/06/04 05:18:31;;;;;;;42.70;10.80;;;;;;;19.68;100.00;98018.75;5049403;28;20107;-57
2022/06/04 05:21:27;;;;;;;40.88;10.48;;;;;;;19.56;100.00;98025.84;5045858;28;20033;-55
2022/06/04 05:23:56;;;;;;;21.60;10.73;;;;;;;19.38;100.00;98034.22;5047896;28;20327;-57
2022/06/04 05:26:23;;;;;;;35.92;10.05;;;;;;;20.11;100.00;98026.00;5047040;28;20493;-56
2022/06/04 05:28:52;;;;;;;19.08;10.27;;;;;;;20.38;100.00;98033.50;5048583;28;20039;-56
2022/06/04 05:31:18;;;;;;;34.17;10.60;;;;;;;20.39;100.00;98030.75;5045982;28;20086;-57
2022/06/04 05:33:44;;;;;;;42.38;11.57;;;;;;;20.41;100.00;98033.28;5047522;28;20116;-56
2022/06/04 05:36:09;;;;;;;35.65;10.10;;;;;;;19.88;100.00;98046.34;5047144;28;20120;-57
2022/06/04 05:38:36;;;;;;;19.23;10.60;;;;;;;20.38;100.00;98038.81;5049375;28;20029;-56
2022/06/04 05:41:06;;;;;;;24.98;10.40;;;;;;;19.89;100.00;98038.28;5048767;28;20127;-56
2022/06/04 05:43:33;;;;;;;20.60;10.77;;;;;;;20.34;100.00;98050.63;5052659;28;20024;-58
2022/06/04 05:46:01;;;;;;;31.27;10.98;;;;;;;19.90;100.00;98055.84;5054585;28;20581;-56
2022/06/04 05:48:27;;;;;;;18.48;9.68;;;;;;;20.38;100.00;98065.31;5051782;28;20060;-57
2022/06/04 05:50:53;;;;;;;35.22;10.93;;;;;;;20.36;100.00;98051.34;5051800;28;20514;-56
2022/06/04 05:53:20;;;;;;;16.45;9.20;;;;;;;21.62;100.00;98043.63;5051364;28;20037;-57
2022/06/04 05:55:45;;;;;;;21.65;9.82;;;;;;;20.64;100.00;98055.31;5053429;28;20528;-56
2022/06/04 05:58:10;;;;;;;17.85;10.55;;;;;;;21.48;100.00;98042.13;5051664;28;20628;-55
2022/06/04 06:00:36;;;;;;;20.50;10.80;;;;;;;20.96;100.00;98039.38;5052388;28;20065;-56
2022/06/04 06:03:01;;;;;;;16.10;10.70;;;;;;;21.81;100.00;98034.06;5051600;28;20177;-57
2022/06/04 06:05:27;;;;;;;16.42;10.38;;;;;;;20.89;100.00;98042.69;5051586;28;20212;-56
2022/06/04 06:07:53;;;;;;;25.75;12.02;;;;;;;20.89;100.00;98054.09;5052062;28;20124;-56
2022/06/04 06:10:20;;;;;;;20.50;11.52;;;;;;;21.88;100.00;98046.69;5049968;28;20020;-56
2022/06/04 06:12:46;;;;;;;16.58;10.82;;;;;;;21.53;100.00;98053.22;5050854;28;20032;-55
2022/06/04 06:15:12;;;;;;;19.33;11.73;;;;;;;21.42;100.00;98060.38;5051685;28;20029;-57
2022/06/04 06:17:40;;;;;;;18.65;11.73;;;;;;;21.44;100.00;98059.25;5052355;28;21058;-55
2022/06/04 06:20:07;;;;;;;21.63;12.52;;;;;;;21.63;100.00;98058.56;5050504;28;20032;-55
2022/06/04 06:22:33;;;;;;;19.38;12.15;;;;;;;21.52;100.00;98061.28;5050459;28;20083;-56
2022/06/04 06:24:58;;;;;;;19.17;11.25;;;;;;;22.57;100.00;98057.53;5049935;28;20053;-56
2022/06/04 06:27:24;;;;;;;18.50;11.45;;;;;;;22.21;100.00;98062.47;5049321;28;20052;-55
2022/06/04 06:29:50;;;;;;;17.65;10.50;;;;;;;24.22;100.00;98045.84;5047536;28;20067;-57
2022/06/04 06:32:15;;;;;;;17.73;9.98;;;;;;;25.04;100.00;98046.72;5051033;28;20474;-56
2022/06/04 06:34:41;;;;;;;14.73;9.20;;;;;;;24.29;100.00;98054.09;5050466;28;20093;-57
2022/06/04 06:37:06;;;;;;;14.38;9.95;;;;;;;24.80;100.00;98047.34;5052904;28;20091;-56
2022/06/04 06:39:31;;;;;;;14.02;9.80;;;;;;;25.30;100.00;98046.78;5053148;28;20632;-57
2022/06/04 06:41:57;;;;;;;12.95;9.15;;;;;;;27.91;100.00;98043.34;5049355;28;20113;-57
2022/06/04 06:44:23;;;;;;;12.52;8.55;;;;;;;28.11;100.00;98044.63;5049412;28;20036;-57
2022/06/04 06:46:49;;;;;;;12.02;8.30;;;;;;;27.84;100.00;98045.84;5050871;28;20037;-58
2022/06/04 06:49:21;;;;;;;10.63;7.57;;;;;;;31.73;96.87;98043.44;5047014;28;20029;-57
2022/06/04 06:51:50;;;;;;;10.23;7.18;;;;;;;31.60;88.07;98041.47;5050170;28;20629;-56
2022/06/04 06:54:17;;;;;;;10.10;6.88;;;;;;;32.00;68.81;98039.84;5051104;28;20641;-56
2022/06/04 06:56:44;;;;;;;9.98;6.43;;;;;;;31.96;69.05;98043.97;5050176;28;20143;-57
2022/06/04 06:59:10;;;;;;;9.30;6.15;;;;;;;33.91;61.49;98043.38;5049582;28;20630;-56
2022/06/04 07:01:37;;;;;;;8.82;5.75;;;;;;;33.64;63.21;98047.94;5048038;28;20194;-57
2022/06/04 07:04:04;;;;;;;6.82;5.28;;;;;;;33.51;60.39;98044.25;5048916;28;20532;-57
2022/06/04 07:06:33;;;;;;;7.72;5.30;;;;;;;29.72;76.96;98037.63;5050013;28;20041;-56
2022/06/04 07:09:00;;;;;;;7.40;5.57;;;;;;;32.01;71.05;98030.72;5047347;28;20033;-58
2022/06/04 07:11:25;;;;;;;6.82;5.05;;;;;;;32.93;62.68;98031.28;5052338;28;20113;-58
2022/06/04 07:13:52;;;;;;;6.72;4.85;;;;;;;33.35;55.27;98029.28;5052167;28;20568;-57
2022/06/04 07:16:18;;;;;;;8.73;5.28;;;;;;;29.08;84.51;98029.97;5051298;28;20133;-58
2022/06/04 07:18:44;;;;;;;7.40;4.70;;;;;;;32.26;60.58;98027.56;5050544;28;20101;-56
2022/06/04 07:21:09;;;;;;;7.38;5.93;;;;;;;29.03;87.90;98031.34;5049527;28;20041;-57
2022/06/04 07:23:36;;;;;;;6.55;5.00;;;;;;;32.00;69.87;98023.69;5050964;28;20088;-58
2022/06/04 07:26:03;;;;;;;6.82;4.57;;;;;;;32.41;61.37;98024.72;5055012;28;20048;-57
2022/06/04 07:28:28;;;;;;;6.90;4.45;;;;;;;33.10;57.86;98037.13;5047000;28;20025;-58
2022/06/04 07:30:54;;;;;;;7.78;4.95;;;;;;;31.47;69.94;98050.28;5044486;28;20066;-57
2022/06/04 07:33:20;;;;;;;13.52;6.18;;;;;;;30.65;70.53;98048.84;5045657;28;20032;-58
2022/06/04 07:35:50;;;;;;;9.70;5.60;;;;;;;31.65;62.95;98053.34;5046038;28;20132;-57
2022/06/04 07:38:16;;;;;;;9.55;5.85;;;;;;;29.22;87.08;98066.81;5045244;28;20127;-57
2022/06/04 07:40:42;;;;;;;8.57;5.72;;;;;;;29.40;81.03;98061.97;5043811;28;20790;-59
2022/06/04 07:43:08;;;;;;;9.43;6.30;;;;;;;27.58;100.00;98064.81;5047899;28;20573;-57
2022/06/04 07:45:34;;;;;;;9.85;6.30;;;;;;;26.67;100.00;98072.78;5043278;28;20033;-57
2022/06/04 07:48:00;;;;;;;11.68;5.90;;;;;;;28.01;100.00;98070.78;5045315;28;20036;-59
2022/06/04 07:50:26;;;;;;;10.15;5.75;;;;;;;27.84;100.00;98081.50;5045218;28;20368;-57
2022/06/04 07:52:51;;;;;;;10.88;6.32;;;;;;;27.45;100.00;98076.88;5044116;28;20731;-57
2022/06/04 07:55:17;;;;;;;14.45;5.95;;;;;;;28.23;100.00;98083.47;5046618;28;20021;-59
2022/06/04 07:57:42;;;;;;;12.43;5.80;;;;;;;31.21;88.36;98080.50;5046486;28;20024;-57
2022/06/04 08:00:10;;;;;;;11.88;5.85;;;;;;;29.92;89.14;98086.34;5044851;28;20037;-58
2022/06/04 08:02:35;;;;;;;9.80;5.28;;;;;;;30.85;86.21;98079.50;5045995;28;20144;-59
2022/06/04 08:05:01;;;;;;;10.75;5.75;;;;;;;30.94;85.09;98081.06;5045508;28;20123;-58
2022/06/04 08:07:26;;;;;;;8.75;5.10;;;;;;;32.97;70.99;98085.75;5044456;28;20148;-58
2022/06/04 08:09:53;;;;;;;9.52;5.35;;;;;;;31.90;75.97;98079.84;5044921;28;20466;-58
2022/06/04 08:12:18;;;;;;;11.13;5.40;;;;;;;31.24;92.69;98077.44;5045310;28;20040;-58
2022/06/04 08:14:46;;;;;;;8.93;5.72;;;;;;;29.09;100.00;98074.63;5044111;28;20020;-58
2022/06/04 08:17:12;;;;;;;10.10;5.60;;;;;;;29.40;100.00;98083.44;5044971;28;20274;-58
2022/06/04 08:19:38;;;;;;;9.50;5.05;;;;;;;29.30;100.00;98072.13;5045559;28;20633;-58
2022/06/04 08:22:05;;;;;;;9.55;6.00;;;;;;;28.73;100.00;98064.44;5045504;28;20072;-58
2022/06/04 08:24:30;;;;;;;9.00;6.30;;;;;;;29.03;100.00;98052.84;5047506;28;20023;-58
2022/06/04 08:27:00;;;;;;;10.73;7.15;;;;;;;28.95;100.00;98052.91;5046824;28;20032;-60
2022/06/04 08:29:34;;;;;;;10.38;5.78;;;;;;;31.23;90.09;98057.75;5044457;28;20044;-59
2022/06/04 08:32:01;;;;;;;9.93;5.93;;;;;;;30.16;94.93;98050.28;5044475;28;20541;-60
2022/06/04 08:34:26;;;;;;;11.82;7.00;;;;;;;29.39;97.36;98060.31;5045130;28;20491;-60
2022/06/04 08:36:51;;;;;;;10.90;7.10;;;;;;;28.94;98.58;98061.97;5047277;28;20044;-59
2022/06/04 08:39:17;;;;;;;10.65;5.80;;;;;;;30.78;84.81;98075.06;5046157;28;20104;-60
2022/06/04 08:41:59;;;;;;;12.82;7.50;;;;;;;29.88;89.84;98074.31;5045143;28;20033;-59
2022/06/04 08:44:34;;;;;;;10.75;6.03;;;;;;;30.12;91.83;98071.31;5044567;28;20082;-60
2022/06/04 08:47:01;;;;;;;11.77;5.95;;;;;;;31.80;81.69;98082.03;5043611;28;20029;-60
2022/06/04 08:49:37;;;;;;;11.30;5.55;;;;;;;30.07;100.00;98083.66;5046677;28;20094;-60
2022/06/04 08:52:23;;;;;;;10.48;6.40;;;;;;;28.81;100.00;98083.19;5044144;28;20052;-61
2022/06/04 08:57:52;;;;;;;9.77;5.97;;;;;;;28.52;100.00;98098.06;5045920;28;20067;-59
2022/06/04 09:00:40;;;;;;;13.60;6.85;;;;;;;28.26;100.00;98104.56;5045789;28;20052;-59
2022/06/04 09:03:15;;;;;;;13.75;7.20;;;;;;;27.27;100.00;98111.03;5045305;28;20031;-60
2022/06/04 09:06:02;;;;;;;11.63;7.45;;;;;;;27.94;100.00;98113.53;5046165;28;20051;-58
2022/06/04 09:08:52;;;;;;;15.05;7.82;;;;;;;27.28;100.00;98118.06;5045991;28;20025;-59
2022/06/04 09:11:37;;;;;;;13.90;8.00;;;;;;;27.16;100.00;98124.72;5044747;28;20999;-60
2022/06/04 09:14:14;;;;;;;12.60;7.88;;;;;;;26.66;100.00;98127.28;5044618;28;20127;-58
2022/06/04 09:16:48;;;;;;;16.25;10.20;;;;;;;25.90;100.00;98128.84;5045939;28;20367;-60
2022/06/04 09:19:17;;;;;;;14.93;9.55;;;;;;;26.35;100.00;98119.75;5048792;28;20646;-59
2022/06/04 09:21:43;;;;;;;14.18;8.85;;;;;;;26.10;100.00;98113.47;5048634;28;20043;-59
2022/06/04 09:24:09;;;;;;;18.48;10.38;;;;;;;25.86;100.00;98113.28;5049430;28;20028;-59
2022/06/04 09:26:41;;;;;;;18.17;10.40;;;;;;;25.98;100.00;98108.56;5049450;28;20097;-59
2022/06/04 09:29:15;;;;;;;;;;;;;;;25.52;100.00;98095.38;5057802;28;20020;-60
2022/06/04 09:31:51;;;;;;;20.35;11.65;;;;;;;24.89;100.00;98099.78;5048002;28;19924;-61
2022/06/04 09:34:24;;;;;;;21.33;12.85;;;;;;;24.61;100.00;98097.16;5048845;28;20051;-57
2022/06/04 09:36:50;;;;;;;23.20;11.95;;;;;;;25.13;100.00;98077.84;5047155;28;20033;-62
2022/06/04 09:39:25;;;;;;;20.50;13.23;;;;;;;24.77;100.00;98072.47;5047582;28;20029;-60
2022/06/04 09:41:52;;;;;;;21.95;12.73;;;;;;;25.16;100.00;98055.31;5048995;28;20036;-61
2022/06/04 09:44:18;;;;;;;21.63;12.45;;;;;;;25.15;100.00;98051.00;5047279;28;20036;-61
2022/06/04 09:46:47;;;;;;;19.77;12.40;;;;;;;25.06;100.00;98039.41;5046905;28;20053;-62
2022/06/04 09:49:18;;;;;;;19.42;11.93;;;;;;;24.70;100.00;98027.91;5047531;28;20016;-59
2022/06/04 09:51:43;;;;;;;15.80;10.32;;;;;;;25.48;100.00;98021.91;5047612;28;20048;-60
2022/06/04 09:54:21;;;;;;;16.45;10.30;;;;;;;25.21;100.00;98032.50;5049503;28;20024;-59
2022/06/04 09:56:52;;;;;;;16.25;10.07;;;;;;;24.51;100.00;98040.34;5046624;28;20033;-61
2022/06/04 09:59:24;;;;;;;20.85;11.35;;;;;;;25.15;100.00;98033.16;5049260;28;20024;-58
2022/06/04 10:02:12;;;;;;;18.10;10.73;;;;;;;25.23;100.00;98039.53;5047125;28;20060;-57
2022/06/04 10:04:49;;;;;;;19.05;10.77;;;;;;;25.85;100.00;98040.31;5048024;28;20120;-61
2022/06/04 10:07:26;;;;;;;15.48;9.07;;;;;;;26.19;100.00;98031.47;5049215;28;20044;-61
2022/06/04 10:09:58;;;;;;;19.08;10.65;;;;;;;25.63;100.00;98031.00;5047199;28;20082;-61
2022/06/04 10:15:18;;;;;;;19.52;10.73;;;;;;;26.68;100.00;98033.47;5047402;28;20525;-57
2022/06/04 10:17:44;;;;;;;17.60;10.07;;;;;;;26.28;100.00;98019.84;5047854;28;20118;-57
2022/06/04 10:20:23;;;;;;;18.38;10.43;;;;;;;25.94;100.00;98018.00;5046791;28;20064;-58
2022/06/04 10:22:50;;;;;;;18.25;9.48;;;;;;;27.17;100.00;98014.78;5048915;28;20029;-57
2022/06/04 10:25:28;;;;;;;15.45;9.18;;;;;;;28.26;100.00;98021.41;5047675;28;20056;-58
2022/06/04 10:28:27;;;;;;;18.35;9.20;;;;;;;28.44;100.00;98023.00;5048296;28;20105;-60
2022/06/04 10:31:09;;;;;;;15.50;8.35;;;;;;;29.66;100.00;98028.47;5046365;28;20082;-55
2022/06/04 10:34:02;;;;;;;17.70;8.13;;;;;;;29.58;100.00;98031.25;5048514;28;20112;-56
2022/06/04 10:37:05;;;;;;;11.63;6.88;;;;;;;30.11;100.00;98026.66;5044601;28;20108;-56
2022/06/04 10:39:46;;;;;;;13.25;8.13;;;;;;;29.62;100.00;98037.09;5045871;28;20514;-56
2022/06/04 10:42:30;;;;;;;12.82;8.07;;;;;;;29.44;100.00;98030.19;5046192;28;20406;-55
2022/06/04 10:45:16;;;;;;;11.50;7.20;;;;;;;30.65;100.00;98038.91;5046972;28;20051;-57
2022/06/04 10:48:00;;;;;;;15.43;6.97;;;;;;;30.44;100.00;98046.91;5042485;28;20580;-57
2022/06/04 10:53:54;;;;;;;12.15;7.80;;;;;;;29.83;100.00;98055.19;5047689;28;20075;-58
2022/06/04 10:56:49;;;;;;;12.85;6.88;;;;;;;31.41;100.00;98054.56;5046066;28;20897;-57
2022/06/04 10:59:27;;;;;;;12.82;8.40;;;;;;;28.72;100.00;98063.63;5047366;28;20083;-56
2022/06/04 11:01:59;;;;;;;11.45;6.80;;;;;;;30.34;100.00;98064.19;5047351;28;20043;-56
2022/06/04 11:04:53;;;;;;;15.18;8.07;;;;;;;28.66;100.00;98064.34;5049118;28;20036;-56
2022/06/04 11:07:32;;;;;;;13.88;8.32;;;;;;;28.51;100.00;98066.91;5039537;28;20135;-57
2022/06/04 11:09:58;;;;;;;13.93;7.43;;;;;;;28.51;100.00;98056.19;5044963;28;20123;-57
2022/06/04 11:12:44;;;;;;;10.85;7.82;;;;;;;27.64;100.00;98070.34;5049227;28;20459;-57
2022/06/04 11:15:29;;;;;;;15.30;7.75;;;;;;;28.49;100.00;98074.28;5044289;28;20032;-56
2022/06/04 11:18:17;;;;;;;17.70;8.05;;;;;;;27.41;100.00;98080.91;5047517;28;20581;-57
2022/06/04 11:21:00;;;;;;;13.60;6.97;;;;;;;27.14;100.00;98081.22;5053271;28;20033;-55
2022/06/04 11:23:50;;;;;;;13.63;8.48;;;;;;;26.57;100.00;98087.25;5047414;28;20402;-57
2022/06/04 11:26:51;;;;;;;15.00;8.05;;;;;;;25.94;100.00;98076.81;5045941;28;20051;-55
2022/06/04 11:29:17;;;;;;;16.13;8.43;;;;;;;26.06;100.00;98084.53;5041326;28;20124;-55
2022/06/04 11:31:46;;;;;;;12.27;7.25;;;;;;;26.19;100.00;98086.78;5044866;28;20140;-56
2022/06/04 11:34:33;;;;;;;13.13;7.70;;;;;;;26.69;100.00;98089.50;5056710;28;20029;-56
2022/06/04 11:37:11;;;;;;;14.95;8.25;;;;;;;26.47;100.00;98093.59;5045560;28;20041;-56
2022/06/04 11:39:51;;;;;;;13.43;7.53;;;;;;;26.51;100.00;98088.75;5046550;28;20033;-55
2022/06/04 11:42:44;;;;;;;18.27;8.38;;;;;;;26.00;100.00;98093.19;5043461;28;20098;-55
2022/06/04 11:45:29;;;;;;;16.50;8.05;;;;;;;26.06;100.00;98089.88;5045201;28;20440;-56
2022/06/04 11:47:58;;;;;;;18.33;7.88;;;;;;;26.26;100.00;98088.63;5045512;28;20450;-58
2022/06/04 11:50:33;;;;;;;14.07;7.10;;;;;;;27.00;100.00;98088.91;5045684;28;20104;-55